Austin, Kansas
Current Conditions -  °F | °C
As of 2:00 AM on Saturday 20 Dec 2014 (Local Time) from KCNU Reporting Station
Haze Haze  
Wind Chill: 35°   Ceiling: 2200
Heat Index: 35°   Visibility: 5mi
Dew Point: 34°   Wind: 0mph
Humidity: 96%   Direction: NA
Pressure: 30.22"   Gusts: NA
Location:  37.6378°N, 95.4622°W
Report Text: KCNU 200800Z AUTO 00000KT 5SM BR SCT013 OVC022 02/01 A3022 RMK AO2 T00170011
Loading
Personal Weather Stations






























Interactive Weather Map New forecast layout! Learn more

10-Day Weather Forecast

Advertisements
Track Severe Weather on mobile